createdAt,value
2019-02-09T00:00:05.282Z,5.30
2019-02-09T00:01:05.304Z,5.30
2019-02-09T00:02:07.975Z,5.20
2019-02-09T00:03:04.932Z,5.20
2019-02-09T00:04:05.052Z,5.20
2019-02-09T00:05:07.814Z,5.20
2019-02-09T00:06:07.308Z,5.20
2019-02-09T00:07:07.720Z,5.10
2019-02-09T00:08:08.146Z,5.10
2019-02-09T00:09:05.033Z,5.20
2019-02-09T00:10:07.681Z,5.10
2019-02-09T00:11:08.151Z,5.10
2019-02-09T00:12:10.283Z,5.10
2019-02-09T00:13:05.224Z,5.10
2019-02-09T00:14:07.865Z,5.10
2019-02-09T00:15:12.378Z,5.00
2019-02-09T00:16:07.759Z,5.00
2019-02-09T00:17:07.322Z,5.00
2019-02-09T00:18:05.103Z,5.00
2019-02-09T00:19:07.653Z,5.00
2019-02-09T00:20:08.114Z,5.00
2019-02-09T00:21:07.669Z,5.00
2019-02-09T00:22:05.657Z,5.00
2019-02-09T00:23:04.748Z,5.00
2019-02-09T00:24:07.361Z,5.00
2019-02-09T00:25:05.278Z,5.00
2019-02-09T00:26:05.364Z,4.90
2019-02-09T00:27:05.781Z,5.00
2019-02-09T00:28:07.329Z,5.00
2019-02-09T00:29:05.249Z,4.90
2019-02-09T00:30:07.339Z,4.90
2019-02-09T00:31:05.302Z,4.90
2019-02-09T00:32:05.343Z,4.90
2019-02-09T00:33:05.544Z,4.90
2019-02-09T00:34:04.664Z,4.90
2019-02-09T00:35:04.671Z,4.80
2019-02-09T00:36:04.810Z,4.90
2019-02-09T00:37:04.989Z,4.90
2019-02-09T00:38:07.606Z,4.90
2019-02-09T00:39:05.623Z,4.80
2019-02-09T00:40:07.255Z,4.80
2019-02-09T00:41:07.716Z,4.80
2019-02-09T00:42:05.736Z,4.80
2019-02-09T00:43:04.789Z,4.80
2019-02-09T00:44:04.834Z,4.80
2019-02-09T00:45:12.592Z,4.80
2019-02-09T00:46:05.556Z,4.80
2019-02-09T00:47:04.660Z,4.70
2019-02-09T00:48:07.398Z,4.70
2019-02-09T00:49:07.908Z,4.70
2019-02-09T00:50:04.958Z,4.70
2019-02-09T00:51:07.641Z,4.70
2019-02-09T00:52:08.014Z,4.70
2019-02-09T00:53:07.456Z,4.70
2019-02-09T00:54:07.853Z,4.70
2019-02-09T00:55:04.820Z,4.70
2019-02-09T00:56:10.464Z,4.70
2019-02-09T00:57:08.047Z,4.70
2019-02-09T00:58:07.431Z,4.70
2019-02-09T00:59:10.484Z,4.70
2019-02-09T01:00:05.408Z,4.70
2019-02-09T01:01:08.034Z,4.70
2019-02-09T01:02:07.465Z,4.70
2019-02-09T01:03:05.418Z,4.70
2019-02-09T01:04:05.539Z,4.70
2019-02-09T01:05:05.716Z,4.70
2019-02-09T01:06:04.900Z,4.70
2019-02-09T01:07:05.128Z,4.70
2019-02-09T01:08:07.759Z,4.70
2019-02-09T01:09:04.707Z,4.60
2019-02-09T01:10:04.777Z,4.70
2019-02-09T01:11:04.807Z,4.70
2019-02-09T01:12:07.541Z,4.60
2019-02-09T01:13:05.615Z,4.60
2019-02-09T01:14:04.730Z,4.70
2019-02-09T01:15:07.302Z,4.60
2019-02-09T01:16:05.404Z,4.60
2019-02-09T01:17:05.502Z,4.60
2019-02-09T01:18:05.589Z,4.60
2019-02-09T01:19:04.786Z,4.60
2019-02-09T01:20:07.470Z,4.60
2019-02-09T01:21:05.444Z,4.60
2019-02-09T01:22:05.567Z,4.60
2019-02-09T01:23:05.574Z,4.60
2019-02-09T01:24:07.204Z,4.60
2019-02-09T01:25:05.118Z,4.60
2019-02-09T01:26:05.217Z,4.60
2019-02-09T01:27:05.358Z,4.60
2019-02-09T01:28:05.575Z,4.60
2019-02-09T01:29:04.712Z,4.70
2019-02-09T01:30:07.723Z,4.70
2019-02-09T01:31:04.644Z,4.70
2019-02-09T01:32:08.103Z,4.70
2019-02-09T01:33:05.038Z,4.70
2019-02-09T01:34:05.180Z,4.70
2019-02-09T01:35:06.996Z,4.70
2019-02-09T01:36:05.089Z,4.70
2019-02-09T01:37:07.854Z,4.80
2019-02-09T01:38:04.805Z,4.70
2019-02-09T01:39:07.393Z,4.80
2019-02-09T01:40:07.903Z,4.80
2019-02-09T01:41:07.477Z,4.80
2019-02-09T01:42:05.443Z,4.80
2019-02-09T01:43:05.473Z,4.80
2019-02-09T01:44:05.527Z,4.80
2019-02-09T01:45:05.581Z,4.80
2019-02-09T01:46:05.620Z,4.80
2019-02-09T01:47:07.221Z,4.80
2019-02-09T01:48:07.761Z,4.80
2019-02-09T01:49:04.658Z,4.80
2019-02-09T01:50:05.267Z,4.80
2019-02-09T01:51:05.399Z,4.80
2019-02-09T01:52:08.034Z,4.80
2019-02-09T01:53:05.056Z,4.80
2019-02-09T01:54:05.187Z,4.80
2019-02-09T01:55:05.248Z,4.80
2019-02-09T01:56:05.427Z,4.80
2019-02-09T01:57:05.645Z,4.80
2019-02-09T01:58:04.752Z,4.70
2019-02-09T01:59:04.891Z,4.80
2019-02-09T02:00:10.296Z,4.80
2019-02-09T02:01:07.446Z,4.70
2019-02-09T02:02:05.372Z,4.70
2019-02-09T02:03:07.966Z,4.70
2019-02-09T02:04:04.978Z,4.70
2019-02-09T02:05:07.591Z,4.70
2019-02-09T02:06:07.992Z,4.70
2019-02-09T02:07:04.861Z,4.70
2019-02-09T02:08:07.431Z,4.70
2019-02-09T02:09:05.353Z,4.70
2019-02-09T02:10:08.008Z,4.60
2019-02-09T02:11:07.636Z,4.60
2019-02-09T02:12:08.162Z,4.60
2019-02-09T02:13:07.723Z,4.60
2019-02-09T02:14:04.816Z,4.60
2019-02-09T02:15:07.425Z,4.60
2019-02-09T02:16:07.952Z,4.60
2019-02-09T02:17:04.979Z,4.60
2019-02-09T02:18:07.568Z,4.60
2019-02-09T02:19:05.443Z,4.60
2019-02-09T02:20:05.635Z,4.60
2019-02-09T02:21:07.467Z,4.60
2019-02-09T02:22:05.438Z,4.60
2019-02-09T02:23:05.529Z,4.60
2019-02-09T02:24:08.126Z,4.60
2019-02-09T02:25:07.644Z,4.60
2019-02-09T02:26:08.237Z,4.60
2019-02-09T02:27:07.733Z,4.60
2019-02-09T02:28:05.778Z,4.60
2019-02-09T02:29:04.930Z,4.70
2019-02-09T02:30:08.111Z,4.70
2019-02-09T02:31:05.089Z,4.60
2019-02-09T02:32:05.213Z,4.70
2019-02-09T02:33:08.008Z,4.70
2019-02-09T02:34:04.971Z,4.70
2019-02-09T02:35:05.021Z,4.70
2019-02-09T02:36:07.735Z,4.70
2019-02-09T02:37:07.380Z,4.70
2019-02-09T02:38:07.879Z,4.70
2019-02-09T02:39:04.829Z,4.70
2019-02-09T02:40:05.167Z,4.80
2019-02-09T02:41:07.945Z,4.80
2019-02-09T02:42:07.454Z,4.80
2019-02-09T02:43:05.537Z,4.80
2019-02-09T02:44:04.717Z,4.80
2019-02-09T02:45:04.775Z,4.80
2019-02-09T02:46:04.898Z,4.80
2019-02-09T02:47:04.918Z,4.80
2019-02-09T02:48:05.013Z,4.90
2019-02-09T02:49:07.607Z,4.90
2019-02-09T02:50:05.552Z,4.90
2019-02-09T02:51:05.584Z,4.90
2019-02-09T02:52:04.646Z,4.90
2019-02-09T02:53:07.231Z,4.90
2019-02-09T02:54:05.139Z,4.90
2019-02-09T02:55:05.316Z,4.90
2019-02-09T02:56:05.433Z,4.90
2019-02-09T02:57:05.424Z,4.90
2019-02-09T02:58:07.998Z,4.80
2019-02-09T02:59:04.879Z,4.80
2019-02-09T03:00:07.516Z,4.90
2019-02-09T03:01:05.431Z,4.80
2019-02-09T03:02:08.048Z,4.80
2019-02-09T03:03:04.995Z,4.80
2019-02-09T03:04:07.602Z,4.80
2019-02-09T03:05:08.035Z,4.80
2019-02-09T03:06:07.503Z,4.80
2019-02-09T03:07:08.041Z,4.80
2019-02-09T03:08:07.499Z,4.80
2019-02-09T03:09:05.462Z,4.80
2019-02-09T03:10:05.696Z,4.70
2019-02-09T03:11:04.842Z,4.70
2019-02-09T03:12:04.949Z,4.70
2019-02-09T03:13:05.129Z,4.70
2019-02-09T03:14:05.256Z,4.70
2019-02-09T03:15:05.396Z,4.70
2019-02-09T03:16:05.098Z,4.70
2019-02-09T03:17:05.361Z,4.70
2019-02-09T03:18:05.464Z,4.70
2019-02-09T03:19:08.121Z,4.60
2019-02-09T03:20:05.133Z,4.70
2019-02-09T03:21:05.267Z,4.70
2019-02-09T03:22:05.418Z,4.70
2019-02-09T03:23:05.466Z,4.60
2019-02-09T03:24:08.020Z,4.60
2019-02-09T03:25:04.911Z,4.70
2019-02-09T03:26:04.959Z,4.70
2019-02-09T03:27:04.994Z,4.60
2019-02-09T03:28:07.556Z,4.70
2019-02-09T03:29:05.518Z,4.60
2019-02-09T03:30:10.167Z,4.60
2019-02-09T03:31:05.304Z,4.60
2019-02-09T03:32:10.849Z,4.70
2019-02-09T03:33:04.939Z,4.70
2019-02-09T03:34:07.521Z,4.70
2019-02-09T03:35:05.377Z,4.70
2019-02-09T03:36:08.035Z,4.70
2019-02-09T03:37:04.981Z,4.60
2019-02-09T03:38:07.512Z,4.60
2019-02-09T03:39:06.072Z,4.60
2019-02-09T03:40:05.383Z,4.60
2019-02-09T03:41:08.037Z,4.60
2019-02-09T03:42:04.962Z,4.60
2019-02-09T03:43:07.688Z,4.60
2019-02-09T03:44:08.138Z,4.70
2019-02-09T03:45:05.181Z,4.60
2019-02-09T03:46:05.278Z,4.70
2019-02-09T03:47:07.836Z,4.60
2019-02-09T03:48:04.714Z,4.60
2019-02-09T03:49:07.414Z,4.60
2019-02-09T03:50:07.823Z,4.60
2019-02-09T03:51:04.723Z,4.60
2019-02-09T03:52:04.816Z,4.60
2019-02-09T03:53:04.957Z,4.60
2019-02-09T03:54:10.192Z,4.60
2019-02-09T03:55:05.100Z,4.60
2019-02-09T03:56:05.196Z,4.70
2019-02-09T03:57:05.254Z,4.70
2019-02-09T03:58:05.282Z,4.70
2019-02-09T03:59:05.375Z,4.70
2019-02-09T04:00:05.629Z,4.70
2019-02-09T04:01:04.661Z,4.70
2019-02-09T04:02:04.720Z,4.70
2019-02-09T04:03:15.020Z,4.70
2019-02-09T04:04:07.648Z,4.70
2019-02-09T04:05:05.581Z,4.70
2019-02-09T04:06:04.648Z,4.70
2019-02-09T04:07:07.371Z,4.80
2019-02-09T04:08:07.826Z,4.70
2019-02-09T04:09:04.728Z,4.70
2019-02-09T04:10:07.291Z,4.80
2019-02-09T04:11:05.176Z,4.80
2019-02-09T04:12:07.891Z,4.70
2019-02-09T04:13:04.908Z,4.70
2019-02-09T04:14:05.005Z,4.70
2019-02-09T04:15:07.650Z,4.70
2019-02-09T04:16:05.547Z,4.70
2019-02-09T04:17:05.646Z,4.70
2019-02-09T04:18:09.849Z,4.70
2019-02-09T04:19:07.349Z,4.70
2019-02-09T04:20:05.314Z,4.70
2019-02-09T04:21:05.361Z,4.70
2019-02-09T04:22:05.530Z,4.60
2019-02-09T04:23:08.164Z,4.60
2019-02-09T04:24:05.130Z,4.60
2019-02-09T04:25:05.361Z,4.70
2019-02-09T04:26:05.492Z,4.70
2019-02-09T04:27:05.598Z,4.60
2019-02-09T04:28:07.301Z,4.70
2019-02-09T04:29:05.313Z,4.60
2019-02-09T04:30:05.377Z,4.70
2019-02-09T04:31:06.637Z,4.70
2019-02-09T04:32:05.042Z,4.70
2019-02-09T04:33:07.585Z,4.70
2019-02-09T04:34:08.154Z,4.70
2019-02-09T04:35:05.088Z,4.70
2019-02-09T04:36:05.218Z,4.70
2019-02-09T04:37:05.329Z,4.70
2019-02-09T04:38:07.472Z,4.70
2019-02-09T04:39:08.146Z,4.70
2019-02-09T04:40:05.210Z,4.70
2019-02-09T04:41:05.439Z,4.80
2019-02-09T04:42:08.135Z,4.70
2019-02-09T04:43:05.118Z,4.70
2019-02-09T04:44:12.756Z,4.70
2019-02-09T04:45:04.785Z,4.70
2019-02-09T04:46:04.843Z,4.70
2019-02-09T04:47:04.834Z,4.70
2019-02-09T04:48:07.414Z,4.80
2019-02-09T04:49:07.972Z,4.80
2019-02-09T04:50:04.916Z,4.70
2019-02-09T04:51:07.562Z,4.70
2019-02-09T04:52:05.430Z,4.80
2019-02-09T04:53:08.161Z,4.80
2019-02-09T04:54:07.785Z,4.80
2019-02-09T04:55:07.373Z,4.80
2019-02-09T04:56:05.394Z,4.80
2019-02-09T04:57:05.617Z,4.80
2019-02-09T04:58:07.252Z,4.80
2019-02-09T04:59:05.337Z,4.80
2019-02-09T05:00:05.391Z,4.80
2019-02-09T05:01:13.513Z,4.80
2019-02-09T05:02:05.129Z,4.80
2019-02-09T05:03:05.437Z,4.80
2019-02-09T05:04:07.639Z,4.80
2019-02-09T05:05:08.069Z,4.80
2019-02-09T05:06:07.601Z,4.80
2019-02-09T05:07:08.099Z,4.80
2019-02-09T05:08:05.001Z,4.80
2019-02-09T05:09:05.107Z,4.80
2019-02-09T05:10:05.306Z,4.80
2019-02-09T05:11:08.095Z,4.80
2019-02-09T05:12:05.098Z,4.80
2019-02-09T05:13:07.726Z,4.80
2019-02-09T05:14:05.621Z,4.70
2019-02-09T05:15:07.323Z,4.70
2019-02-09T05:16:07.861Z,4.80
2019-02-09T05:17:04.804Z,4.80
2019-02-09T05:18:04.958Z,4.80
2019-02-09T05:19:05.045Z,4.80
2019-02-09T05:20:05.120Z,4.70
2019-02-09T05:21:07.752Z,4.70
2019-02-09T05:22:04.693Z,4.70
2019-02-09T05:23:07.327Z,4.80
2019-02-09T05:24:05.252Z,4.70
2019-02-09T05:25:08.111Z,4.80
2019-02-09T05:26:07.793Z,4.70
2019-02-09T05:27:04.768Z,4.70
2019-02-09T05:28:05.253Z,4.70
2019-02-09T05:29:05.321Z,4.80
2019-02-09T05:30:07.979Z,4.80
2019-02-09T05:31:07.690Z,4.80
2019-02-09T05:32:05.749Z,4.70
2019-02-09T05:33:07.415Z,4.80
2019-02-09T05:34:07.974Z,4.70
2019-02-09T05:35:10.084Z,4.70
2019-02-09T05:36:10.128Z,4.70
2019-02-09T05:37:07.622Z,4.70
2019-02-09T05:38:08.002Z,4.80
2019-02-09T05:39:04.887Z,4.70
2019-02-09T05:40:04.977Z,4.70
2019-02-09T05:41:05.010Z,4.80
2019-02-09T05:42:07.711Z,4.70
2019-02-09T05:43:09.943Z,4.70
2019-02-09T05:44:07.389Z,4.80
2019-02-09T05:45:05.263Z,4.70
2019-02-09T05:46:07.405Z,4.70
2019-02-09T05:47:05.343Z,4.70
2019-02-09T05:48:08.164Z,4.70
2019-02-09T05:49:05.152Z,4.80
2019-02-09T05:50:07.726Z,4.80
2019-02-09T05:51:04.689Z,4.80
2019-02-09T05:52:04.920Z,4.80
2019-02-09T05:53:05.054Z,4.80
2019-02-09T05:54:07.816Z,4.90
2019-02-09T05:55:07.462Z,4.80
2019-02-09T05:56:05.597Z,4.80
2019-02-09T05:57:04.848Z,4.90
2019-02-09T05:58:04.983Z,4.80
2019-02-09T05:59:05.079Z,4.90
2019-02-09T06:00:07.801Z,4.80
2019-02-09T06:01:04.895Z,4.80
2019-02-09T06:02:05.156Z,4.80
2019-02-09T06:03:05.277Z,4.90
2019-02-09T06:04:05.359Z,4.90
2019-02-09T06:05:05.431Z,4.90
2019-02-09T06:06:05.707Z,4.90
2019-02-09T06:07:04.826Z,4.90
2019-02-09T06:08:10.013Z,4.90
2019-02-09T06:09:07.579Z,4.90
2019-02-09T06:10:05.676Z,4.80
2019-02-09T06:11:04.771Z,4.80
2019-02-09T06:12:07.368Z,4.80
2019-02-09T06:13:07.824Z,4.90
2019-02-09T06:14:04.742Z,4.80
2019-02-09T06:15:05.498Z,4.80
2019-02-09T06:16:08.073Z,4.80
2019-02-09T06:17:10.102Z,4.80
2019-02-09T06:18:05.317Z,4.80
2019-02-09T06:19:05.500Z,4.80
2019-02-09T06:20:05.630Z,4.80
2019-02-09T06:21:04.725Z,4.80
2019-02-09T06:22:04.944Z,4.80
2019-02-09T06:23:05.041Z,4.80
2019-02-09T06:24:05.272Z,4.80
2019-02-09T06:25:05.365Z,4.80
2019-02-09T06:26:08.363Z,4.80
2019-02-09T06:27:05.413Z,4.80
2019-02-09T06:28:05.628Z,4.80
2019-02-09T06:29:04.751Z,4.80
2019-02-09T06:30:04.881Z,4.80
2019-02-09T06:31:04.961Z,4.80
2019-02-09T06:32:10.209Z,4.80
2019-02-09T06:33:07.719Z,4.80
2019-02-09T06:34:08.276Z,4.70
2019-02-09T06:35:05.215Z,4.80
2019-02-09T06:36:07.889Z,4.70
2019-02-09T06:37:04.992Z,4.70
2019-02-09T06:38:05.101Z,4.70
2019-02-09T06:39:07.701Z,4.80
2019-02-09T06:40:12.305Z,4.70
2019-02-09T06:41:07.811Z,4.70
2019-02-09T06:42:04.858Z,4.70
2019-02-09T06:43:05.086Z,4.70
2019-02-09T06:44:05.180Z,4.70
2019-02-09T06:45:05.273Z,4.70
2019-02-09T06:46:08.014Z,4.70
2019-02-09T06:47:05.050Z,4.70
2019-02-09T06:48:07.632Z,4.70
2019-02-09T06:49:05.598Z,4.70
2019-02-09T06:50:05.171Z,4.70
2019-02-09T06:51:07.875Z,4.70
2019-02-09T06:52:05.019Z,4.70
2019-02-09T06:53:05.159Z,4.70
2019-02-09T06:54:07.766Z,4.70
2019-02-09T06:55:07.294Z,4.70
2019-02-09T06:56:05.244Z,4.60
2019-02-09T06:57:08.015Z,4.60
2019-02-09T06:58:05.061Z,4.70
2019-02-09T06:59:07.775Z,4.70
2019-02-09T07:00:04.750Z,4.70
2019-02-09T07:01:04.839Z,4.70
2019-02-09T07:02:04.990Z,4.70
2019-02-09T07:03:07.643Z,4.70
2019-02-09T07:04:05.691Z,4.70
2019-02-09T07:05:04.730Z,4.70
2019-02-09T07:06:09.891Z,4.70
2019-02-09T07:07:04.837Z,4.70
2019-02-09T07:08:09.928Z,4.70
2019-02-09T07:09:04.874Z,4.70
2019-02-09T07:10:07.518Z,4.70
2019-02-09T07:11:05.557Z,4.80
2019-02-09T07:12:04.847Z,4.80
2019-02-09T07:13:05.131Z,4.80
2019-02-09T07:14:07.949Z,4.80
2019-02-09T07:15:04.970Z,4.80
2019-02-09T07:16:07.682Z,4.80
2019-02-09T07:17:07.359Z,4.80
2019-02-09T07:18:08.043Z,4.80
2019-02-09T07:19:07.538Z,4.90
2019-02-09T07:20:05.503Z,4.90
2019-02-09T07:21:05.534Z,4.90
2019-02-09T07:22:05.615Z,4.90
2019-02-09T07:23:07.392Z,5.00
2019-02-09T07:24:05.486Z,5.00
2019-02-09T07:25:05.650Z,5.00
2019-02-09T07:26:04.821Z,5.00
2019-02-09T07:27:07.515Z,5.00
2019-02-09T07:28:08.110Z,5.00
2019-02-09T07:29:05.070Z,5.00
2019-02-09T07:30:13.144Z,5.10
2019-02-09T07:31:05.160Z,5.00
2019-02-09T07:32:07.966Z,5.10
2019-02-09T07:33:04.944Z,5.10
2019-02-09T07:34:07.628Z,5.10
2019-02-09T07:35:05.744Z,5.10
2019-02-09T07:36:05.069Z,5.10
2019-02-09T07:37:07.793Z,5.10
2019-02-09T07:38:04.717Z,5.10
2019-02-09T07:39:07.506Z,5.10
2019-02-09T07:40:05.460Z,5.10
2019-02-09T07:41:04.837Z,5.10
2019-02-09T07:42:04.944Z,5.20
2019-02-09T07:43:05.017Z,5.20
2019-02-09T07:44:05.089Z,5.20
2019-02-09T07:45:05.196Z,5.20
2019-02-09T07:46:05.237Z,5.20
2019-02-09T07:47:05.318Z,5.20
2019-02-09T07:48:05.496Z,5.20
2019-02-09T07:49:04.999Z,5.20
2019-02-09T07:50:07.610Z,5.20
2019-02-09T07:51:05.669Z,5.20
2019-02-09T07:52:07.279Z,5.30
2019-02-09T07:53:05.208Z,5.30
2019-02-09T07:54:07.960Z,5.40
2019-02-09T07:55:04.986Z,5.40
2019-02-09T07:56:05.064Z,5.40
2019-02-09T07:57:05.497Z,5.50
2019-02-09T07:58:08.151Z,5.60
2019-02-09T07:59:10.222Z,5.70
2019-02-09T08:00:07.703Z,5.80
2019-02-09T08:01:05.845Z,5.80
2019-02-09T08:02:05.127Z,5.80
2019-02-09T08:03:07.900Z,5.90
2019-02-09T08:04:04.912Z,5.90
2019-02-09T08:05:04.859Z,6.00
2019-02-09T08:06:04.980Z,6.00
2019-02-09T08:07:05.038Z,6.10
2019-02-09T08:08:07.722Z,6.20
2019-02-09T08:09:04.717Z,6.20
2019-02-09T08:10:04.947Z,6.20
2019-02-09T08:11:09.096Z,6.30
2019-02-09T08:12:05.389Z,6.30
2019-02-09T08:13:07.982Z,6.40
2019-02-09T08:14:04.930Z,6.30
2019-02-09T08:15:05.109Z,6.40
2019-02-09T08:16:05.191Z,6.40
2019-02-09T08:17:05.405Z,6.40
2019-02-09T08:18:05.712Z,6.50
2019-02-09T08:19:04.832Z,6.50
2019-02-09T08:20:04.934Z,6.50
2019-02-09T08:21:05.115Z,6.60
2019-02-09T08:22:05.248Z,6.70
2019-02-09T08:23:08.092Z,6.70
2019-02-09T08:24:05.033Z,6.70
2019-02-09T08:25:05.085Z,6.70
2019-02-09T08:26:05.234Z,6.70
2019-02-09T08:27:07.883Z,6.80
2019-02-09T08:28:07.488Z,6.80
2019-02-09T08:29:05.504Z,6.80
2019-02-09T08:30:04.946Z,6.80
2019-02-09T08:31:07.667Z,6.80
2019-02-09T08:32:12.412Z,6.80
2019-02-09T08:33:07.698Z,6.80
2019-02-09T08:34:07.238Z,6.80
2019-02-09T08:35:05.215Z,6.80
2019-02-09T08:36:05.287Z,6.80
2019-02-09T08:37:05.526Z,6.90
2019-02-09T08:38:04.747Z,6.90
2019-02-09T08:39:04.837Z,6.90
2019-02-09T08:40:04.976Z,6.90
2019-02-09T08:41:05.178Z,7.00
2019-02-09T08:42:05.246Z,7.00
2019-02-09T08:43:07.906Z,7.00
2019-02-09T08:44:04.829Z,7.10
2019-02-09T08:45:09.918Z,7.10
2019-02-09T08:46:04.888Z,7.10
2019-02-09T08:47:04.887Z,7.10
2019-02-09T08:48:04.902Z,7.10
2019-02-09T08:49:05.079Z,7.10
2019-02-09T08:50:05.275Z,7.20
2019-02-09T08:51:07.932Z,7.20
2019-02-09T08:52:04.934Z,7.20
2019-02-09T08:53:04.953Z,7.20
2019-02-09T08:54:07.636Z,7.30
2019-02-09T08:55:08.167Z,7.20
2019-02-09T08:56:05.349Z,7.20
2019-02-09T08:57:05.577Z,7.30
2019-02-09T08:58:04.690Z,7.20
2019-02-09T08:59:07.441Z,7.20
2019-02-09T09:00:05.705Z,7.20
2019-02-09T09:01:04.840Z,7.20
2019-02-09T09:02:04.935Z,7.20
2019-02-09T09:03:05.101Z,7.20
2019-02-09T09:04:07.900Z,7.20
2019-02-09T09:05:09.665Z,7.30
2019-02-09T09:06:07.603Z,7.30
2019-02-09T09:07:05.602Z,7.30
2019-02-09T09:08:04.799Z,7.20
2019-02-09T09:09:07.530Z,7.30
2019-02-09T09:10:13.192Z,7.30
2019-02-09T09:11:05.196Z,7.20
2019-02-09T09:12:05.298Z,7.30
2019-02-09T09:13:05.333Z,7.30
2019-02-09T09:14:05.546Z,7.20
2019-02-09T09:15:05.637Z,7.30
2019-02-09T09:16:09.843Z,7.20
2019-02-09T09:17:04.944Z,7.30
2019-02-09T09:18:05.003Z,7.20
2019-02-09T09:19:05.107Z,7.20
2019-02-09T09:20:05.216Z,7.30
2019-02-09T09:21:05.370Z,7.30
2019-02-09T09:22:05.537Z,7.20
2019-02-09T09:23:08.130Z,7.20
2019-02-09T09:24:05.074Z,7.10
2019-02-09T09:25:05.193Z,7.20
2019-02-09T09:26:08.022Z,7.10
2019-02-09T09:27:07.574Z,7.20
2019-02-09T09:28:05.438Z,7.20
2019-02-09T09:29:05.582Z,7.10
2019-02-09T09:30:04.787Z,7.10
2019-02-09T09:31:04.793Z,7.10
2019-02-09T09:32:07.382Z,7.10
2019-02-09T09:33:08.032Z,7.10
2019-02-09T09:34:05.033Z,7.10
2019-02-09T09:35:05.211Z,7.10
2019-02-09T09:36:05.334Z,7.10
2019-02-09T09:37:05.476Z,7.10
2019-02-09T09:38:05.531Z,7.10
2019-02-09T09:39:04.699Z,7.10
2019-02-09T09:40:04.732Z,7.10
2019-02-09T09:41:07.487Z,7.10
2019-02-09T09:42:05.551Z,7.10
2019-02-09T09:43:05.583Z,7.10
2019-02-09T09:44:05.806Z,7.10
2019-02-09T09:45:05.039Z,7.10
2019-02-09T09:46:07.585Z,7.10
2019-02-09T09:47:08.195Z,7.10
2019-02-09T09:48:07.743Z,7.20
2019-02-09T09:49:04.678Z,7.20
2019-02-09T09:50:09.891Z,7.20
2019-02-09T09:51:07.324Z,7.20
2019-02-09T09:52:05.407Z,7.20
2019-02-09T09:53:05.547Z,7.20
2019-02-09T09:54:08.340Z,7.20
2019-02-09T09:55:08.263Z,7.20
2019-02-09T09:56:06.258Z,7.20
2019-02-09T09:57:05.168Z,7.20
2019-02-09T09:58:05.382Z,7.20
2019-02-09T09:59:05.577Z,7.20
2019-02-09T10:00:04.747Z,7.30
2019-02-09T10:01:09.839Z,7.30
2019-02-09T10:02:04.839Z,7.30
2019-02-09T10:03:07.424Z,7.30
2019-02-09T10:04:05.554Z,7.30
2019-02-09T10:05:04.892Z,7.30
2019-02-09T10:06:05.125Z,7.40
2019-02-09T10:07:05.447Z,7.40
2019-02-09T10:08:05.613Z,7.40
2019-02-09T10:09:04.841Z,7.50
2019-02-09T10:10:04.962Z,7.50
2019-02-09T10:11:07.636Z,7.60
2019-02-09T10:12:05.624Z,7.50
2019-02-09T10:13:04.686Z,7.60
2019-02-09T10:14:08.830Z,7.60
2019-02-09T10:15:05.215Z,7.60
2019-02-09T10:16:05.390Z,7.60
2019-02-09T10:17:08.022Z,7.60
2019-02-09T10:18:04.924Z,7.70
2019-02-09T10:19:04.987Z,7.60
2019-02-09T10:20:07.700Z,7.60
2019-02-09T10:21:04.661Z,7.70
2019-02-09T10:22:04.770Z,7.70
2019-02-09T10:23:07.933Z,7.70
2019-02-09T10:24:04.988Z,7.70
2019-02-09T10:25:05.142Z,7.70
2019-02-09T10:26:05.183Z,7.70
2019-02-09T10:27:05.450Z,7.80
2019-02-09T10:28:05.649Z,7.80
2019-02-09T10:29:04.743Z,7.90
2019-02-09T10:30:05.348Z,7.90
2019-02-09T10:31:05.464Z,7.90
2019-02-09T10:32:05.669Z,7.90
2019-02-09T10:33:04.717Z,8.00
2019-02-09T10:34:04.799Z,8.00
2019-02-09T10:35:04.944Z,8.10
2019-02-09T10:36:05.162Z,8.10
2019-02-09T10:37:05.471Z,8.20
2019-02-09T10:38:05.559Z,8.20
2019-02-09T10:39:05.779Z,8.30
2019-02-09T10:40:05.037Z,8.30
2019-02-09T10:41:05.115Z,8.30
2019-02-09T10:42:05.234Z,8.30
2019-02-09T10:43:05.364Z,8.40
2019-02-09T10:44:05.447Z,8.50
2019-02-09T10:45:05.580Z,8.50
2019-02-09T10:46:04.676Z,8.50
2019-02-09T10:47:07.407Z,8.50
2019-02-09T10:48:10.406Z,8.50
2019-02-09T10:49:07.919Z,8.60
2019-02-09T10:50:04.798Z,8.60
2019-02-09T10:51:04.954Z,8.60
2019-02-09T10:52:05.296Z,8.70
2019-02-09T10:53:05.538Z,8.70
2019-02-09T10:54:05.640Z,8.80
2019-02-09T10:55:04.722Z,8.80
2019-02-09T10:56:04.871Z,8.90
2019-02-09T10:57:10.054Z,9.00
2019-02-09T10:58:05.004Z,8.90
2019-02-09T10:59:05.106Z,9.00
2019-02-09T11:00:05.443Z,9.10
2019-02-09T11:01:05.625Z,9.10
2019-02-09T11:02:07.270Z,9.10
2019-02-09T11:03:07.739Z,9.10
2019-02-09T11:04:04.719Z,9.10
2019-02-09T11:05:07.301Z,9.10
2019-02-09T11:06:05.277Z,9.10
2019-02-09T11:07:05.349Z,9.10
2019-02-09T11:08:08.022Z,9.10
2019-02-09T11:09:07.624Z,9.20
2019-02-09T11:10:05.595Z,9.10
2019-02-09T11:11:05.699Z,9.20
2019-02-09T11:12:07.308Z,9.20
2019-02-09T11:13:07.916Z,9.20
2019-02-09T11:14:04.910Z,9.20
2019-02-09T11:15:04.970Z,9.20
2019-02-09T11:16:05.214Z,9.20
2019-02-09T11:17:05.430Z,9.20
2019-02-09T11:18:08.156Z,9.30
2019-02-09T11:19:10.140Z,9.30
2019-02-09T11:20:05.231Z,9.30
2019-02-09T11:21:05.451Z,9.30
2019-02-09T11:22:05.586Z,9.40
2019-02-09T11:23:04.716Z,9.40
2019-02-09T11:24:04.836Z,9.40
2019-02-09T11:25:07.495Z,9.40
2019-02-09T11:26:07.967Z,9.50
2019-02-09T11:27:07.423Z,9.40
2019-02-09T11:28:05.339Z,9.40
2019-02-09T11:29:05.479Z,9.40
2019-02-09T11:30:05.027Z,9.40
2019-02-09T11:31:05.147Z,9.50
2019-02-09T11:32:07.832Z,9.50
2019-02-09T11:33:04.869Z,9.50
2019-02-09T11:34:05.132Z,9.40
2019-02-09T11:35:05.261Z,9.50
2019-02-09T11:36:05.380Z,9.50
2019-02-09T11:37:05.489Z,9.60
2019-02-09T11:38:08.149Z,9.60
2019-02-09T11:39:05.132Z,9.60
2019-02-09T11:40:05.428Z,9.60
2019-02-09T11:41:13.298Z,9.60
2019-02-09T11:42:05.261Z,9.60
2019-02-09T11:43:07.883Z,9.60
2019-02-09T11:44:04.806Z,9.60
2019-02-09T11:45:04.904Z,9.60
2019-02-09T11:46:07.614Z,9.50
2019-02-09T11:47:05.613Z,9.50
2019-02-09T11:48:12.426Z,9.50
2019-02-09T11:49:05.425Z,9.60
2019-02-09T11:50:06.397Z,9.60
2019-02-09T11:51:07.293Z,9.60
2019-02-09T11:52:05.211Z,9.60
2019-02-09T11:53:05.273Z,9.60
2019-02-09T11:54:10.466Z,9.70
2019-02-09T11:55:05.492Z,9.70
2019-02-09T11:56:05.575Z,9.70
2019-02-09T11:57:08.180Z,9.70
2019-02-09T11:58:05.260Z,9.70
2019-02-09T11:59:07.948Z,9.70
2019-02-09T12:00:07.381Z,9.70
2019-02-09T12:01:05.474Z,9.70
2019-02-09T12:02:08.073Z,9.60
2019-02-09T12:03:13.811Z,9.70
2019-02-09T12:04:07.491Z,9.60
2019-02-09T12:05:05.419Z,9.60
2019-02-09T12:06:08.119Z,9.60
2019-02-09T12:07:05.099Z,9.60
2019-02-09T12:08:05.311Z,9.60
2019-02-09T12:09:05.350Z,9.60
2019-02-09T12:10:08.371Z,9.50
2019-02-09T12:11:04.824Z,9.50
2019-02-09T12:12:04.973Z,9.50
2019-02-09T12:13:05.318Z,9.40
2019-02-09T12:14:07.961Z,9.50
2019-02-09T12:15:10.005Z,9.40
2019-02-09T12:16:05.101Z,9.40
2019-02-09T12:17:05.249Z,9.40
2019-02-09T12:18:07.858Z,9.30
2019-02-09T12:19:04.942Z,9.30
2019-02-09T12:20:07.662Z,9.20
2019-02-09T12:21:08.246Z,9.30
2019-02-09T12:22:05.200Z,9.20
2019-02-09T12:23:05.365Z,9.20
2019-02-09T12:24:07.962Z,9.20
2019-02-09T12:25:04.882Z,9.20
2019-02-09T12:26:04.893Z,9.20
2019-02-09T12:27:05.033Z,9.10
2019-02-09T12:28:07.598Z,9.20
2019-02-09T12:29:05.643Z,9.10
2019-02-09T12:30:04.909Z,9.10
2019-02-09T12:31:04.962Z,9.20
2019-02-09T12:32:05.122Z,9.20
2019-02-09T12:33:05.219Z,9.20
2019-02-09T12:34:05.331Z,9.10
2019-02-09T12:35:07.894Z,9.20
2019-02-09T12:36:04.838Z,9.20
2019-02-09T12:37:04.975Z,9.20
2019-02-09T12:38:07.680Z,9.20
2019-02-09T12:39:10.678Z,9.20
2019-02-09T12:40:05.717Z,9.10
2019-02-09T12:41:07.411Z,9.20
2019-02-09T12:42:05.337Z,9.10
2019-02-09T12:43:07.988Z,9.20
2019-02-09T12:44:04.933Z,9.20
2019-02-09T12:45:07.705Z,9.20
2019-02-09T12:46:05.665Z,9.20
2019-02-09T12:47:04.837Z,9.20
2019-02-09T12:48:04.952Z,9.30
2019-02-09T12:49:05.053Z,9.30
2019-02-09T12:50:12.790Z,9.20
2019-02-09T12:51:12.381Z,9.20
2019-02-09T12:52:05.012Z,9.20
2019-02-09T12:53:08.057Z,9.20
2019-02-09T12:54:04.981Z,9.20
2019-02-09T12:55:05.071Z,9.30
2019-02-09T12:56:10.398Z,9.20
2019-02-09T12:57:05.423Z,9.20
2019-02-09T12:58:05.734Z,9.20
2019-02-09T12:59:04.999Z,9.20
2019-02-09T13:00:05.895Z,9.20
2019-02-09T13:01:07.704Z,9.20
2019-02-09T13:02:04.726Z,9.20
2019-02-09T13:03:07.360Z,9.20
2019-02-09T13:04:07.735Z,9.20
2019-02-09T13:05:10.406Z,9.20
2019-02-09T13:06:08.047Z,9.20
2019-02-09T13:07:07.515Z,9.20
2019-02-09T13:08:05.614Z,9.20
2019-02-09T13:09:04.668Z,9.20
2019-02-09T13:10:07.375Z,9.20
2019-02-09T13:11:10.428Z,9.20
2019-02-09T13:12:12.945Z,9.20
2019-02-09T13:13:04.945Z,9.20
2019-02-09T13:14:10.122Z,9.20
2019-02-09T13:15:05.115Z,9.20
2019-02-09T13:16:05.287Z,9.20
2019-02-09T13:17:05.479Z,9.30
2019-02-09T13:18:05.683Z,9.20